Time;durP1;ratioP1;P1;durP2;ratioP2;P2;SDS_P1;SDS_P2;PMS_P1;PMS_P2;Temp;Humidity;BMP_temperature;BMP_pressure;BME280_temperature;BME280_humidity;BME280_pressure;Samples;Min_cycle;Max_cycle;Signal;HPM_P1;HPM_P2
2022/12/22 03:25:52;;;;;;;13.45;5.40;;;7.30;99.90;;;;;;5103577;28;20035;-73
2022/12/22 03:28:20;;;;;;;14.27;6.65;;;7.10;99.90;;;;;;5111092;28;20055;-73
2022/12/22 03:30:59;;;;;;;14.18;6.32;;;7.10;99.90;;;;;;5107648;28;20555;-73
2022/12/22 03:33:25;;;;;;;14.35;6.90;;;7.10;99.90;;;;;;5107687;28;20028;-74
2022/12/22 03:35:51;;;;;;;13.35;6.13;;;7.00;99.90;;;;;;5109190;28;20032;-73
2022/12/22 03:38:18;;;;;;;13.75;6.88;;;7.00;99.90;;;;;;5107689;28;20072;-72
2022/12/22 03:40:43;;;;;;;17.58;6.45;;;6.80;99.90;;;;;;5108494;28;20036;-75
2022/12/22 03:49:08;;;;;;;11.48;6.03;;;6.70;99.90;;;;;;5106473;28;20080;-74
2022/12/22 03:51:29;;;;;;;14.27;6.70;;;6.70;99.90;;;;;;5110555;28;20027;-73
2022/12/22 03:53:55;;;;;;;23.13;7.18;;;6.60;99.90;;;;;;5111811;28;20088;-73
2022/12/22 03:56:21;;;;;;;14.93;7.07;;;6.50;99.90;;;;;;5109963;28;20123;-73
2022/12/22 03:58:46;;;;;;;14.68;6.30;;;6.40;99.90;;;;;;5094156;28;20052;-74
2022/12/22 04:01:12;;;;;;;11.10;6.32;;;6.40;99.90;;;;;;5098365;28;20024;-72
2022/12/22 04:03:37;;;;;;;10.23;6.60;;;6.30;99.90;;;;;;5108698;28;20027;-73
2022/12/22 04:06:03;;;;;;;8.88;4.30;;;6.10;99.90;;;;;;5112578;28;20051;-74
2022/12/22 04:08:29;;;;;;;11.40;4.65;;;6.20;99.90;;;;;;5115498;28;20030;-75
2022/12/22 04:13:38;;;;;;;8.93;3.70;;;6.90;99.90;;;;;;5109831;28;20080;-74
2022/12/22 04:16:05;;;;;;;10.75;3.53;;;7.10;99.90;;;;;;5114712;28;20127;-73
2022/12/22 04:18:30;;;;;;;10.18;4.32;;;7.00;99.90;;;;;;5108633;28;20026;-74
2022/12/22 04:20:56;;;;;;;15.23;5.55;;;7.00;99.90;;;;;;5115777;28;20072;-74
2022/12/22 04:23:22;;;;;;;10.65;4.78;;;6.80;99.90;;;;;;5108365;28;20422;-73
2022/12/22 04:25:47;;;;;;;8.57;4.60;;;6.50;99.90;;;;;;5105142;28;20114;-73
2022/12/22 04:28:13;;;;;;;7.70;3.92;;;6.40;99.90;;;;;;5100348;28;20020;-73
2022/12/22 04:30:38;;;;;;;8.90;3.55;;;6.20;99.90;;;;;;5097558;28;20027;-73
2022/12/22 04:33:04;;;;;;;7.43;3.25;;;6.10;99.90;;;;;;5112090;28;20031;-72
2022/12/22 04:35:30;;;;;;;7.57;3.80;;;6.00;99.90;;;;;;5090095;28;20368;-73
2022/12/22 04:37:56;;;;;;;8.30;3.25;;;5.80;99.90;;;;;;5111173;28;20027;-72
2022/12/22 04:40:21;;;;;;;12.48;3.55;;;5.80;99.90;;;;;;5108760;28;20398;-72
2022/12/22 04:42:47;;;;;;;7.10;3.55;;;5.90;99.90;;;;;;5088470;28;20026;-73
2022/12/22 04:45:12;;;;;;;9.10;3.45;;;6.00;99.90;;;;;;5106690;28;20031;-72
2022/12/22 04:47:38;;;;;;;7.93;4.00;;;6.00;99.90;;;;;;5111182;28;20020;-74
2022/12/22 04:50:04;;;;;;;9.07;4.13;;;6.10;99.90;;;;;;5111130;28;20429;-73
2022/12/22 04:52:30;;;;;;;9.05;4.82;;;6.30;99.90;;;;;;5098404;28;20019;-73
2022/12/22 04:54:56;;;;;;;12.68;4.03;;;6.40;99.90;;;;;;5101596;28;20035;-73
2022/12/22 04:57:22;;;;;;;8.25;4.25;;;6.50;99.90;;;;;;5099643;28;20023;-73
2022/12/22 04:59:47;;;;;;;9.80;4.03;;;6.50;99.90;;;;;;5105977;28;20032;-72
2022/12/22 05:02:13;;;;;;;8.25;3.55;;;6.60;99.90;;;;;;5101086;28;20399;-72
2022/12/22 05:04:39;;;;;;;8.93;3.10;;;6.40;99.90;;;;;;5110347;28;20115;-73
2022/12/22 05:07:06;;;;;;;7.10;2.50;;;6.20;99.90;;;;;;5109912;28;20051;-72
2022/12/22 05:09:32;;;;;;;10.10;3.60;;;6.10;99.90;;;;;;5105409;28;20036;-73
2022/12/22 05:11:58;;;;;;;7.43;2.97;;;6.20;99.90;;;;;;5108807;28;20450;-73
2022/12/22 05:14:24;;;;;;;4.20;2.63;;;6.40;99.90;;;;;;5109377;28;20020;-73
2022/12/22 05:16:49;;;;;;;6.95;2.55;;;5.90;99.90;;;;;;5102000;28;20053;-73
2022/12/22 05:19:15;;;;;;;6.05;2.78;;;5.70;99.90;;;;;;5105515;28;20024;-72
2022/12/22 05:21:41;;;;;;;7.85;3.20;;;5.60;99.90;;;;;;5104147;28;20023;-72
2022/12/22 05:24:06;;;;;;;9.13;2.65;;;5.50;99.90;;;;;;5109075;28;20020;-73
2022/12/22 05:26:32;;;;;;;12.95;3.30;;;5.60;99.90;;;;;;5107666;28;20498;-73
2022/12/22 05:28:58;;;;;;;7.35;2.83;;;5.60;99.90;;;;;;5108311;28;20037;-72
2022/12/22 05:31:25;;;;;;;4.97;2.97;;;5.60;99.90;;;;;;5100674;28;20028;-73
2022/12/22 05:33:51;;;;;;;9.68;3.40;;;5.50;99.90;;;;;;5108013;28;20019;-73
2022/12/22 05:36:16;;;;;;;15.93;3.55;;;5.60;99.90;;;;;;5108337;28;20024;-72
2022/12/22 05:38:46;;;;;;;7.68;3.15;;;5.60;99.90;;;;;;5110564;28;20114;-72
2022/12/22 05:41:11;;;;;;;6.90;3.55;;;5.80;99.90;;;;;;5085443;28;20098;-73
2022/12/22 05:43:38;;;;;;;11.13;4.38;;;5.90;99.90;;;;;;5106822;28;20479;-72
2022/12/22 05:46:10;;;;;;;7.95;3.97;;;6.10;99.90;;;;;;5110295;28;20043;-72
2022/12/22 05:48:36;;;;;;;9.65;4.45;;;6.20;99.90;;;;;;5110435;28;20038;-72
2022/12/22 05:51:02;;;;;;;10.85;4.10;;;6.40;99.90;;;;;;5106235;28;20047;-74
2022/12/22 05:53:28;;;;;;;13.10;4.50;;;6.60;99.90;;;;;;5108786;28;20024;-73
2022/12/22 05:55:54;;;;;;;14.90;6.13;;;7.00;99.90;;;;;;5110590;28;20028;-74
2022/12/22 05:58:20;;;;;;;16.10;5.75;;;7.10;99.90;;;;;;5108519;28;20048;-74
2022/12/22 06:00:46;;;;;;;18.35;6.45;;;7.20;99.90;;;;;;5105394;28;20108;-73
2022/12/22 06:03:12;;;;;;;14.38;5.28;;;7.20;99.90;;;;;;5105933;28;20084;-73
2022/12/22 06:05:38;;;;;;;18.05;5.65;;;7.30;99.90;;;;;;5105118;28;20043;-73
2022/12/22 06:08:04;;;;;;;18.40;5.78;;;7.40;99.90;;;;;;5097599;28;20024;-73
2022/12/22 06:10:29;;;;;;;13.40;5.30;;;7.50;99.90;;;;;;5101650;28;20068;-73
2022/12/22 06:12:55;;;;;;;17.25;5.22;;;7.60;99.90;;;;;;5100565;28;20085;-73
2022/12/22 06:15:20;;;;;;;12.80;5.28;;;7.70;99.90;;;;;;5103490;28;20536;-73
2022/12/22 06:17:46;;;;;;;18.90;5.00;;;7.70;99.90;;;;;;5100162;28;20036;-73
2022/12/22 06:20:13;;;;;;;13.85;5.80;;;7.70;99.90;;;;;;5108013;28;20050;-73
2022/12/22 06:22:39;;;;;;;16.23;5.50;;;7.70;99.90;;;;;;5109885;28;20019;-73
2022/12/22 06:25:05;;;;;;;15.20;4.57;;;7.70;99.90;;;;;;5106820;28;20031;-72
2022/12/22 06:27:30;;;;;;;14.15;4.10;;;7.60;99.90;;;;;;5107391;28;20023;-73
2022/12/22 06:29:56;;;;;;;10.77;4.22;;;7.60;99.90;;;;;;5104504;28;20027;-72
2022/12/22 06:32:22;;;;;;;13.38;5.75;;;7.60;99.90;;;;;;5101728;28;20510;-73
2022/12/22 06:34:47;;;;;;;12.30;5.38;;;7.60;99.90;;;;;;5107976;28;20467;-73
2022/12/22 06:37:13;;;;;;;14.88;5.50;;;7.60;99.90;;;;;;5108669;28;20360;-73
2022/12/22 06:39:39;;;;;;;12.38;5.35;;;7.70;99.90;;;;;;5111325;28;20165;-72
2022/12/22 06:44:49;;;;;;;14.75;5.38;;;7.80;99.90;;;;;;5112631;27;20084;-72
2022/12/22 06:47:16;;;;;;;15.13;6.50;;;7.80;99.90;;;;;;5115782;27;20479;-72
2022/12/22 06:49:41;;;;;;;14.80;6.32;;;7.90;99.90;;;;;;5130236;27;20118;-72
2022/12/22 06:52:08;;;;;;;16.25;6.25;;;7.90;99.90;;;;;;5110955;27;20458;-73
2022/12/22 06:54:33;;;;;;;14.40;5.50;;;8.00;99.90;;;;;;5114296;27;20026;-72
2022/12/22 06:56:59;;;;;;;15.25;4.78;;;8.10;99.90;;;;;;5111675;28;20024;-73
2022/12/22 06:59:25;;;;;;;12.52;4.40;;;8.10;99.90;;;;;;5108895;27;20032;-72
2022/12/22 07:01:50;;;;;;;11.65;3.30;;;8.10;99.90;;;;;;5111608;27;20468;-73
2022/12/22 07:04:19;;;;;;;7.75;3.33;;;8.20;99.90;;;;;;5115541;27;20027;-73
2022/12/22 07:06:48;;;;;;;10.48;4.10;;;8.20;99.90;;;;;;5121315;27;20058;-73
2022/12/22 07:09:13;;;;;;;10.38;3.30;;;8.30;99.90;;;;;;5111850;27;20472;-74
2022/12/22 07:11:39;;;;;;;8.18;4.07;;;8.30;99.90;;;;;;5110993;27;20031;-73
2022/12/22 07:14:05;;;;;;;9.98;3.08;;;8.40;99.90;;;;;;5111663;28;20054;-71
2022/12/22 07:16:30;;;;;;;14.73;4.43;;;8.40;99.90;;;;;;5112896;28;20027;-73
2022/12/22 07:18:56;;;;;;;7.68;3.60;;;8.30;99.90;;;;;;5121680;27;20027;-73
2022/12/22 07:21:22;;;;;;;9.25;3.40;;;8.30;99.90;;;;;;5112590;27;20057;-74
2022/12/22 07:23:47;;;;;;;6.05;3.28;;;8.30;99.90;;;;;;5094536;28;20027;-73
2022/12/22 07:26:13;;;;;;;7.13;3.92;;;8.40;99.90;;;;;;5102797;27;20058;-74
2022/12/22 07:28:40;;;;;;;9.15;4.30;;;8.40;99.90;;;;;;5113114;27;20505;-75
2022/12/22 07:31:07;;;;;;;8.48;4.00;;;8.50;99.90;;;;;;5110441;28;20035;-72
2022/12/22 07:33:33;;;;;;;10.25;4.25;;;8.40;99.90;;;;;;5109390;27;20442;-73
2022/12/22 07:36:02;;;;;;;9.60;3.92;;;8.40;99.90;;;;;;5118945;27;20109;-74
2022/12/22 07:38:30;;;;;;;10.20;4.13;;;8.40;99.90;;;;;;5111244;28;20026;-73
2022/12/22 07:40:58;;;;;;;9.13;3.85;;;8.40;99.90;;;;;;5104383;28;20027;-73
2022/12/22 07:43:25;;;;;;;7.38;3.22;;;8.40;99.90;;;;;;5104869;27;20024;-73
2022/12/22 07:45:50;;;;;;;9.90;5.35;;;8.40;99.90;;;;;;5112371;28;20076;-73
2022/12/22 07:51:03;;;;;;;10.20;4.97;;;8.50;99.90;;;;;;5097277;28;20042;-72
2022/12/22 07:53:29;;;;;;;8.43;4.97;;;8.50;99.90;;;;;;5121258;27;20020;-73
2022/12/22 07:55:55;;;;;;;11.60;5.80;;;8.50;99.90;;;;;;5113546;27;20085;-72
2022/12/22 07:58:20;;;;;;;14.27;6.60;;;8.60;99.90;;;;;;5117329;27;20024;-73
2022/12/22 08:00:46;;;;;;;15.40;5.82;;;8.60;99.90;;;;;;5099318;27;20032;-74
2022/12/22 08:03:12;;;;;;;14.52;5.97;;;8.60;99.90;;;;;;5105046;28;20020;-72
2022/12/22 08:05:37;;;;;;;13.93;6.93;;;8.70;99.90;;;;;;5112330;27;20050;-74
2022/12/22 08:08:03;;;;;;;12.10;6.25;;;8.70;99.90;;;;;;5125246;27;20020;-73
2022/12/22 08:10:29;;;;;;;15.23;6.20;;;8.70;99.90;;;;;;5109272;28;20036;-74
2022/12/22 08:12:55;;;;;;;11.90;5.35;;;8.80;99.90;;;;;;5112507;27;20024;-73
2022/12/22 08:15:21;;;;;;;9.77;4.43;;;8.90;99.90;;;;;;5114187;27;20378;-75
2022/12/22 08:17:46;;;;;;;19.17;5.82;;;8.90;99.90;;;;;;5123171;27;20511;-74
2022/12/22 08:20:12;;;;;;;21.10;5.15;;;9.00;99.90;;;;;;5109716;27;20042;-74
2022/12/22 08:22:38;;;;;;;17.20;5.28;;;9.00;99.90;;;;;;5116994;27;20016;-75
2022/12/22 08:25:04;;;;;;;7.53;2.40;;;9.20;99.90;;;;;;5114765;27;20047;-75
2022/12/22 08:27:38;;;;;;;9.93;2.75;;;9.30;99.90;;;;;;5101996;28;20023;-74
2022/12/22 08:30:06;;;;;;;13.90;3.65;;;9.30;99.90;;;;;;5105616;28;20059;-74
2022/12/22 08:32:33;;;;;;;13.15;3.95;;;9.40;99.90;;;;;;5115488;27;20030;-73
2022/12/22 08:34:59;;;;;;;14.10;3.67;;;9.40;99.90;;;;;;5117041;27;20030;-74
2022/12/22 08:37:26;;;;;;;4.03;2.45;;;9.50;99.90;;;;;;5113011;27;20019;-74
2022/12/22 08:39:56;;;;;;;8.38;3.10;;;9.50;99.90;;;;;;5116433;27;20229;-73
2022/12/22 08:42:23;;;;;;;6.80;2.28;;;9.70;99.90;;;;;;5108099;27;20505;-74
2022/12/22 08:44:52;;;;;;;5.65;1.58;;;9.70;99.90;;;;;;5124509;27;20486;-73
2022/12/22 08:47:21;;;;;;;5.28;0.70;;;9.80;99.90;;;;;;5121191;27;20360;-73
2022/12/22 08:49:48;;;;;;;3.80;0.57;;;10.00;99.90;;;;;;5115497;27;20063;-73
2022/12/22 08:52:14;;;;;;;7.68;0.68;;;10.10;99.90;;;;;;5108065;28;20034;-73
2022/12/22 08:54:40;;;;;;;7.85;1.02;;;10.20;99.90;;;;;;5112742;27;20023;-74
2022/12/22 08:57:06;;;;;;;5.72;0.40;;;10.30;99.90;;;;;;5112694;27;20028;-72
2022/12/22 08:59:31;;;;;;;1.95;0.55;;;10.30;99.90;;;;;;5104768;28;20020;-73
2022/12/22 09:01:57;;;;;;;4.70;1.35;;;10.30;99.90;;;;;;5100364;27;20484;-72
2022/12/22 09:04:24;;;;;;;3.70;0.75;;;10.40;99.90;;;;;;5106649;28;20031;-72
2022/12/22 09:06:52;;;;;;;6.00;1.70;;;10.40;99.90;;;;;;5106274;28;20571;-72
2022/12/22 09:09:18;;;;;;;8.80;1.27;;;10.50;99.90;;;;;;5099634;28;20111;-74
2022/12/22 09:11:43;;;;;;;3.72;1.20;;;10.50;99.90;;;;;;5107191;27;20028;-73
2022/12/22 09:14:10;;;;;;;4.82;1.13;;;10.50;99.90;;;;;;5116233;27;20027;-74
2022/12/22 09:16:36;;;;;;;6.00;1.00;;;10.60;99.90;;;;;;5108781;28;20015;-75
2022/12/22 09:19:02;;;;;;;13.32;1.65;;;10.60;99.90;;;;;;5105386;28;20122;-74
2022/12/22 09:21:29;;;;;;;14.73;1.30;;;10.70;99.90;;;;;;5098985;28;20030;-72
2022/12/22 09:23:55;;;;;;;16.85;2.28;;;10.70;99.90;;;;;;5105729;28;20356;-76
2022/12/22 09:26:23;;;;;;;10.00;2.13;;;10.70;99.90;;;;;;5111834;27;20070;-74
2022/12/22 09:28:49;;;;;;;15.57;2.22;;;10.80;99.90;;;;;;5100606;27;20081;-74
2022/12/22 09:31:15;;;;;;;21.00;2.88;;;10.80;99.90;;;;;;5107166;28;20032;-73
2022/12/22 09:33:40;;;;;;;20.40;2.92;;;10.90;99.90;;;;;;5109244;28;20111;-75
2022/12/22 09:36:08;;;;;;;25.90;3.80;;;11.00;99.90;;;;;;5095547;28;20040;-77
2022/12/22 09:38:33;;;;;;;30.67;4.55;;;11.00;99.90;;;;;;5113836;27;20024;-74
2022/12/22 09:41:14;;;;;;;40.20;5.18;;;11.00;99.90;;;;;;5109599;28;20035;-73
2022/12/22 09:43:44;;;;;;;44.00;6.38;;;11.10;99.90;;;;;;5094961;28;20016;-73
2022/12/22 09:46:23;;;;;;;38.45;6.35;;;11.20;99.90;;;;;;5083278;28;20032;-73
2022/12/22 09:48:50;;;;;;;50.83;6.47;;;11.20;99.90;;;;;;5087886;28;20114;-73
2022/12/22 09:51:17;;;;;;;46.88;5.55;;;11.30;99.90;;;;;;5106464;28;20035;-73
2022/12/22 09:53:44;;;;;;;34.85;6.15;;;11.20;99.90;;;;;;5106508;28;20025;-72
2022/12/22 09:56:15;;;;;;;36.38;5.00;;;11.20;99.90;;;;;;5092871;28;20024;-72
2022/12/22 09:58:41;;;;;;;35.28;5.85;;;11.20;99.90;;;;;;5089190;28;20535;-72
2022/12/22 10:01:07;;;;;;;29.98;4.88;;;11.30;99.90;;;;;;5100313;28;20023;-71
2022/12/22 10:03:51;;;;;;;34.90;4.10;;;11.30;99.90;;;;;;5093381;28;20046;-72
2022/12/22 10:06:44;;;;;;;35.05;5.82;;;11.30;99.90;;;;;;5087636;28;20054;-71
2022/12/22 10:09:18;;;;;;;36.33;4.47;;;11.30;99.90;;;;;;5099388;28;20027;-71
2022/12/22 10:11:59;;;;;;;34.65;5.78;;;11.30;99.90;;;;;;5084005;28;20039;-70
2022/12/22 10:14:33;;;;;;;29.48;3.67;;;11.40;99.90;;;;;;5103536;28;20098;-71
2022/12/22 10:17:31;;;;;;;30.42;6.20;;;11.40;99.90;;;;;;5099280;28;20689;-71
2022/12/22 10:20:07;;;;;;;35.88;4.88;;;11.50;99.90;;;;;;5096658;28;20376;-72
2022/12/22 10:22:48;;;;;;;29.85;5.10;;;11.50;99.90;;;;;;5098486;27;20467;-72
2022/12/22 10:25:29;;;;;;;46.20;6.25;;;11.60;99.90;;;;;;5084642;28;20126;-72
2022/12/22 10:27:57;;;;;;;39.05;6.45;;;11.60;99.90;;;;;;5097572;28;20028;-72
2022/12/22 10:30:35;;;;;;;32.63;7.22;;;11.70;99.90;;;;;;5098962;27;20050;-72
2022/12/22 10:33:10;;;;;;;45.15;6.38;;;11.70;99.90;;;;;;5096888;27;20054;-70
2022/12/22 10:35:52;;;;;;;44.13;5.32;;;11.70;99.90;;;;;;5085931;28;20024;-71
2022/12/22 10:38:22;;;;;;;54.88;8.30;;;11.70;99.90;;;;;;5090117;27;20387;-72
2022/12/22 10:40:57;;;;;;;38.22;5.97;;;11.80;99.90;;;;;;5106569;28;20043;-74
2022/12/22 10:43:36;;;;;;;40.20;5.57;;;11.80;99.90;;;;;;5106457;27;20031;-72
2022/12/22 10:46:03;;;;;;;39.38;6.68;;;11.80;99.90;;;;;;5110818;28;20106;-73
2022/12/22 10:48:35;;;;;;;43.03;7.53;;;11.90;99.90;;;;;;5095229;28;20081;-72
2022/12/22 10:51:04;;;;;;;42.08;6.95;;;11.90;99.90;;;;;;5106475;28;20036;-71
2022/12/22 10:53:38;;;;;;;40.13;6.70;;;11.90;99.90;;;;;;5105050;28;20031;-72
2022/12/22 10:56:05;;;;;;;49.80;7.43;;;11.80;99.90;;;;;;5096622;27;20039;-72
2022/12/22 10:58:50;;;;;;;51.17;7.45;;;11.90;99.90;;;;;;5103143;28;20038;-72
2022/12/22 11:01:23;;;;;;;47.95;10.07;;;11.90;99.90;;;;;;5115506;27;20133;-71
2022/12/22 11:03:49;;;;;;;43.65;7.22;;;11.90;99.90;;;;;;5107162;28;20026;-71
2022/12/22 11:06:15;;;;;;;59.13;9.02;;;11.90;99.90;;;;;;5106773;27;20048;-72
2022/12/22 11:08:41;;;;;;;39.15;6.57;;;12.00;99.90;;;;;;5112637;27;20490;-72
2022/12/22 11:11:13;;;;;;;47.03;6.57;;;11.90;99.90;;;;;;5096559;28;20106;-71
2022/12/22 11:13:50;;;;;;;46.45;7.68;;;12.00;99.90;;;;;;5099130;28;20027;-73
2022/12/22 11:16:18;;;;;;;41.28;6.13;;;12.00;99.90;;;;;;5098835;28;20409;-71
2022/12/22 11:19:06;;;;;;;46.53;7.20;;;12.00;99.90;;;;;;5099336;28;20028;-72
2022/12/22 11:21:37;;;;;;;49.97;5.97;;;12.00;99.90;;;;;;5093889;28;20031;-72
2022/12/22 11:24:21;;;;;;;40.97;5.90;;;11.90;99.90;;;;;;5106378;28;20463;-71
2022/12/22 11:27:24;;;;;;;38.08;6.13;;;11.90;99.90;;;;;;5098314;28;20028;-72
2022/12/22 11:30:10;;;;;;;;;;;11.90;99.90;;;;;;5091768;28;20048;-72
2022/12/22 11:36:00;;;;;;;50.63;7.05;;;11.90;99.90;;;;;;5105968;28;20030;-73
2022/12/22 11:39:06;;;;;;;43.63;7.25;;;11.80;99.90;;;;;;5097488;28;20574;-73
2022/12/22 11:41:55;;;;;;;55.65;6.53;;;11.70;99.90;;;;;;5101418;28;20521;-72
2022/12/22 11:44:21;;;;;;;43.63;7.47;;;11.70;99.90;;;;;;5100663;28;20132;-72
2022/12/22 11:47:02;;;;;;;43.50;7.32;;;11.70;99.90;;;;;;5098439;28;20403;-74
2022/12/22 11:49:50;;;;;;;42.15;8.32;;;11.60;99.90;;;;;;5093406;27;20028;-73
2022/12/22 11:52:21;;;;;;;50.60;7.72;;;11.50;99.90;;;;;;5107322;27;20028;-73
2022/12/22 11:55:02;;;;;;;50.97;8.13;;;11.50;99.90;;;;;;5101310;28;20028;-73
2022/12/22 11:57:27;;;;;;;70.10;9.55;;;11.50;99.90;;;;;;5100134;28;20084;-73
2022/12/22 12:00:10;;;;;;;67.90;10.30;;;11.50;99.90;;;;;;5100920;28;20118;-72
2022/12/22 12:03:20;;;;;;;90.53;10.65;;;11.50;99.90;;;;;;5103137;28;20028;-72
2022/12/22 12:06:01;;;;;;;60.25;9.50;;;11.70;99.90;;;;;;5098722;28;20476;-73
2022/12/22 12:08:35;;;;;;;69.30;9.65;;;11.70;99.90;;;;;;5098857;28;20118;-73
2022/12/22 12:11:22;;;;;;;63.80;9.60;;;11.70;99.90;;;;;;5108586;28;20126;-72
2022/12/22 12:14:03;;;;;;;65.70;9.00;;;11.70;99.90;;;;;;5104493;28;20027;-70
2022/12/22 12:16:53;;;;;;;62.75;9.18;;;11.70;99.90;;;;;;5104338;27;20037;-70
2022/12/22 12:19:30;;;;;;;51.33;7.72;;;11.70;99.90;;;;;;5099262;28;20472;-70
2022/12/22 12:21:58;;;;;;;50.05;7.18;;;11.70;99.90;;;;;;5106086;28;20055;-70
2022/12/22 12:24:30;;;;;;;55.97;8.38;;;11.60;99.90;;;;;;5108987;28;20074;-69
2022/12/22 12:27:07;;;;;;;57.63;9.20;;;11.60;99.90;;;;;;5110451;28;20055;-69
2022/12/22 12:30:01;;;;;;;47.33;7.90;;;11.60;99.90;;;;;;5102638;28;20391;-69
2022/12/22 12:32:37;;;;;;;53.90;8.27;;;11.60;99.90;;;;;;5108623;28;20483;-70
2022/12/22 12:35:30;;;;;;;61.40;10.65;;;11.60;99.90;;;;;;5110692;28;20372;-70
2022/12/22 12:38:08;;;;;;;53.90;7.97;;;11.60;99.90;;;;;;5105695;28;20035;-70
2022/12/22 12:40:42;;;;;;;54.85;7.20;;;11.50;99.90;;;;;;5109929;28;20028;-69
2022/12/22 12:43:11;;;;;;;69.68;10.43;;;11.50;99.90;;;;;;5108867;28;20483;-70
2022/12/22 12:45:42;;;;;;;52.97;9.43;;;11.50;99.90;;;;;;5110488;28;20101;-70
2022/12/22 12:48:23;;;;;;;70.00;10.13;;;11.50;99.90;;;;;;5107874;28;20069;-68
2022/12/22 12:50:49;;;;;;;68.63;8.65;;;11.50;99.90;;;;;;5110030;28;20299;-69
2022/12/22 12:53:17;;;;;;;67.95;8.75;;;11.60;99.90;;;;;;5108789;28;20032;-69
2022/12/22 12:55:48;;;;;;;64.78;10.20;;;11.60;99.90;;;;;;5109960;28;20140;-69
2022/12/22 12:58:34;;;;;;;63.33;9.20;;;11.60;99.90;;;;;;5099273;28;20144;-69
2022/12/22 13:01:05;;;;;;;63.42;11.15;;;11.70;99.90;;;;;;5112319;27;20027;-70
2022/12/22 13:03:30;;;;;;;67.00;9.02;;;11.70;99.90;;;;;;5102099;27;20467;-69
2022/12/22 13:06:01;;;;;;;60.85;10.25;;;11.70;99.90;;;;;;5113626;27;20054;-70
2022/12/22 13:08:29;;;;;;;48.88;7.07;;;11.60;99.90;;;;;;5111254;27;20031;-70
2022/12/22 13:10:54;;;;;;;56.47;12.48;;;11.60;99.90;;;;;;5122164;27;20024;-69
2022/12/22 13:13:23;;;;;;;55.85;7.75;;;11.60;99.90;;;;;;5112741;27;20026;-69
2022/12/22 13:16:09;;;;;;;48.08;7.70;;;11.60;99.90;;;;;;5111438;28;20038;-70
2022/12/22 13:18:41;;;;;;;54.20;7.97;;;11.70;99.90;;;;;;5110442;27;20032;-69
2022/12/22 13:21:15;;;;;;;54.28;8.35;;;11.60;99.90;;;;;;5103803;28;20106;-70
2022/12/22 13:23:46;;;;;;;44.25;7.60;;;11.70;99.90;;;;;;5107580;27;20035;-69
2022/12/22 13:26:24;;;;;;;42.55;6.82;;;11.70;99.90;;;;;;5107140;27;20025;-69
2022/12/22 13:28:56;;;;;;;58.55;9.05;;;11.70;99.90;;;;;;5104570;28;20536;-69
2022/12/22 13:31:53;;;;;;;59.75;8.52;;;11.70;99.90;;;;;;5102182;28;20036;-73
2022/12/22 13:34:21;;;;;;;48.15;8.75;;;11.90;99.90;;;;;;5089207;28;20048;-72
2022/12/22 13:36:50;;;;;;;55.13;7.65;;;11.90;99.90;;;;;;5113320;27;20034;-72
2022/12/22 13:39:16;;;;;;;54.70;9.70;;;12.00;99.90;;;;;;5108601;28;20063;-72
2022/12/22 13:41:45;;;;;;;44.88;7.13;;;12.00;99.90;;;;;;5120425;27;20035;-72
2022/12/22 13:44:17;;;;;;;47.95;8.68;;;12.10;99.90;;;;;;5107749;28;20088;-72
2022/12/22 13:46:43;;;;;;;59.45;9.00;;;12.10;99.90;;;;;;5116319;27;20046;-73
2022/12/22 13:49:14;;;;;;;45.83;6.97;;;12.00;99.90;;;;;;5106730;28;20020;-73
2022/12/22 13:51:41;;;;;;;58.90;10.13;;;12.00;99.90;;;;;;5117059;28;20036;-73
2022/12/22 13:54:16;;;;;;;61.92;9.02;;;12.00;99.90;;;;;;5108370;28;20027;-72
2022/12/22 13:56:50;;;;;;;43.42;7.38;;;11.90;99.90;;;;;;5104473;28;20543;-74
2022/12/22 13:59:41;;;;;;;48.15;7.90;;;11.90;99.90;;;;;;5105491;28;20019;-72
2022/12/22 14:02:07;;;;;;;48.90;7.78;;;11.90;99.90;;;;;;5118014;28;20035;-72
2022/12/22 14:04:38;;;;;;;43.55;7.65;;;11.80;99.90;;;;;;5121239;28;20119;-72
2022/12/22 14:07:13;;;;;;;50.10;10.23;;;11.80;99.90;;;;;;5110518;28;20040;-72
2022/12/22 14:09:46;;;;;;;51.35;8.32;;;11.80;99.90;;;;;;5110307;28;20053;-71
2022/12/22 14:12:30;;;;;;;53.15;8.15;;;11.80;99.90;;;;;;5100310;28;20036;-72
2022/12/22 14:14:59;;;;;;;53.88;9.15;;;11.80;99.90;;;;;;5109047;28;20035;-72
2022/12/22 14:17:38;;;;;;;30.13;6.90;;;11.80;99.90;;;;;;5096675;28;20032;-74
2022/12/22 14:20:25;;;;;;;34.47;4.72;;;11.80;99.90;;;;;;5097389;28;20036;-73
2022/12/22 14:23:09;;;;;;;32.05;5.00;;;11.70;99.90;;;;;;5097256;28;20024;-74
2022/12/22 14:25:39;;;;;;;23.92;5.10;;;11.70;99.90;;;;;;5078174;28;20468;-73
2022/12/22 14:28:12;;;;;;;20.80;4.20;;;11.70;99.90;;;;;;5105477;28;20028;-73
2022/12/22 14:30:42;;;;;;;39.50;6.78;;;11.60;99.90;;;;;;5103495;28;20032;-72
2022/12/22 14:33:34;;;;;;;45.85;6.25;;;11.60;99.90;;;;;;5104978;28;20463;-71
2022/12/22 14:36:17;;;;;;;45.55;7.82;;;11.70;99.90;;;;;;5086267;28;20096;-72
2022/12/22 14:38:48;;;;;;;37.85;7.50;;;11.80;99.90;;;;;;5107631;28;20031;-73
2022/12/22 14:41:41;;;;;;;51.27;6.97;;;11.80;99.90;;;;;;5104995;28;20031;-71
2022/12/22 14:44:33;;;;;;;38.20;5.38;;;11.80;99.90;;;;;;5086940;28;20028;-72
2022/12/22 14:47:13;;;;;;;44.58;6.45;;;11.70;99.90;;;;;;5084637;28;20038;-73
2022/12/22 14:49:48;;;;;;;36.60;4.35;;;11.70;99.90;;;;;;5097098;28;20027;-73
2022/12/22 14:52:36;;;;;;;38.53;6.53;;;11.70;99.90;;;;;;5098195;28;20498;-72
2022/12/22 14:55:05;;;;;;;42.97;7.15;;;11.60;99.90;;;;;;5108490;28;20016;-73
2022/12/22 14:57:41;;;;;;;49.33;9.10;;;11.60;99.90;;;;;;5105674;28;20024;-73
2022/12/22 15:00:21;;;;;;;44.67;8.23;;;11.60;99.90;;;;;;5099067;28;20073;-73
2022/12/22 15:03:00;;;;;;;42.25;8.60;;;11.60;99.90;;;;;;5098121;28;20024;-73
2022/12/22 15:05:36;;;;;;;44.08;8.35;;;11.50;99.90;;;;;;5083985;28;20502;-74
2022/12/22 15:08:03;;;;;;;37.42;7.55;;;11.50;99.90;;;;;;5111462;28;20517;-73
2022/12/22 15:10:42;;;;;;;40.63;7.80;;;11.50;99.90;;;;;;5110860;28;20043;-73
2022/12/22 15:13:17;;;;;;;55.78;7.65;;;11.50;99.90;;;;;;5102467;28;20039;-72
2022/12/22 15:15:43;;;;;;;53.38;9.85;;;11.50;99.90;;;;;;5111152;28;20035;-72
2022/12/22 15:18:13;;;;;;;46.55;9.85;;;11.50;99.90;;;;;;5108961;28;20027;-71
2022/12/22 15:20:38;;;;;;;62.10;7.68;;;11.50;99.90;;;;;;5111103;28;20028;-73
2022/12/22 15:23:13;;;;;;;55.53;7.15;;;11.50;99.90;;;;;;5109141;28;20030;-72
2022/12/22 15:25:39;;;;;;;44.53;6.38;;;11.50;99.90;;;;;;5109831;28;20020;-72
2022/12/22 15:28:04;;;;;;;43.25;6.55;;;11.40;99.90;;;;;;5105931;28;20042;-71
2022/12/22 15:30:31;;;;;;;49.03;8.45;;;11.40;99.90;;;;;;5091662;28;20050;-72
2022/12/22 15:32:56;;;;;;;48.08;6.32;;;11.40;99.90;;;;;;5107569;28;20143;-71
2022/12/22 15:35:31;;;;;;;38.58;5.78;;;11.40;99.90;;;;;;5107236;28;20192;-72
2022/12/22 15:37:57;;;;;;;33.40;6.28;;;11.40;99.90;;;;;;5109244;28;20375;-73
2022/12/22 15:40:24;;;;;;;41.13;6.57;;;11.30;99.90;;;;;;5110291;28;20471;-72
2022/12/22 15:42:50;;;;;;;40.83;5.97;;;11.30;99.90;;;;;;5104410;28;20027;-73
2022/12/22 15:45:16;;;;;;;52.78;6.97;;;11.30;99.90;;;;;;5108862;28;20031;-73
2022/12/22 15:47:47;;;;;;;39.08;5.18;;;11.30;99.90;;;;;;5110991;28;20027;-72
2022/12/22 15:50:22;;;;;;;37.95;5.35;;;11.30;99.90;;;;;;5108838;28;20043;-72
2022/12/22 15:52:52;;;;;;;35.80;5.97;;;11.20;99.90;;;;;;5102680;28;20032;-72
2022/12/22 15:55:19;;;;;;;30.10;6.40;;;11.20;99.90;;;;;;5108544;28;20036;-73
2022/12/22 15:57:50;;;;;;;41.83;6.47;;;11.20;99.90;;;;;;5105006;28;20030;-72
2022/12/22 16:00:16;;;;;;;22.70;3.90;;;11.10;99.90;;;;;;5109473;28;20111;-72
2022/12/22 16:02:42;;;;;;;30.17;4.72;;;11.10;99.90;;;;;;5109402;27;20027;-72
2022/12/22 16:05:08;;;;;;;27.75;4.75;;;11.10;99.90;;;;;;5087204;28;20047;-72
2022/12/22 16:07:35;;;;;;;38.72;6.20;;;11.10;99.90;;;;;;5104452;28;20356;-72
2022/12/22 16:10:01;;;;;;;46.63;7.40;;;11.10;99.90;;;;;;5107414;28;20040;-72
2022/12/22 16:12:28;;;;;;;32.47;5.47;;;11.10;99.90;;;;;;5081386;27;20046;-72
2022/12/22 16:14:56;;;;;;;34.53;6.40;;;11.00;99.90;;;;;;5091036;28;20041;-72
2022/12/22 16:17:24;;;;;;;26.55;5.63;;;11.00;99.90;;;;;;5100567;27;20389;-71
2022/12/22 16:19:50;;;;;;;25.33;4.82;;;11.00;99.90;;;;;;5103008;27;20024;-71
2022/12/22 16:22:25;;;;;;;30.50;3.47;;;10.90;99.90;;;;;;5119150;27;20436;-72
2022/12/22 16:24:50;;;;;;;29.83;8.07;;;10.90;99.90;;;;;;5107263;28;20032;-71
2022/12/22 16:27:16;;;;;;;19.70;3.88;;;10.90;99.90;;;;;;5105598;28;20020;-71
2022/12/22 16:29:46;;;;;;;17.90;3.03;;;10.90;99.90;;;;;;5107857;28;20051;-72
2022/12/22 16:32:26;;;;;;;30.88;6.82;;;10.90;99.90;;;;;;5121341;27;20038;-72
2022/12/22 16:34:54;;;;;;;20.70;4.65;;;10.80;99.90;;;;;;5112338;27;20024;-71
2022/12/22 16:37:20;;;;;;;20.95;4.38;;;10.80;99.90;;;;;;5109767;27;20511;-71
2022/12/22 16:39:46;;;;;;;33.53;5.03;;;10.70;99.90;;;;;;5110731;28;20024;-72
2022/12/22 16:42:13;;;;;;;21.80;4.68;;;10.60;99.90;;;;;;5108996;27;20027;-71